Marathon, WI (54448)

12:39 AM CDT on August 24, 2016 (GMT -0500)
APRSWXNET | | Change Station

Elev 1164 ft 44.86 °N, 89.68 °W | Updated 29 minutes ago

Light Rain
Light Rain
67 °F
Feels Like 67 °F
N
0
Wind Variable Wind from SE
Gusts 0.0 mph

Today
High -- | Low -- °F
--% Chance of Precip.
Yesterday
High -- | Low -- °F
Precip. -- in
Pressure 29.95 in
Visibility 10.0 miles
Clouds Few 3000 ft
Mostly Cloudy 3800 ft
Dew Point 65 °F
Humidity 92%
Rainfall in
Snow Depth Not available.
6:12 AM 7:49 PM
Waning Gibbous, 60% visible
METAR KAUW 240454Z AUTO 13008KT 10SM -RA FEW030 BKN038 20/16 A2995 RMK AO2 RAB52 PRESFR SLP140 P0000 T02000161
Pressure 29.95 in
Visibility 10.0 miles
Clouds Few 3000 ft
Mostly Cloudy 3800 ft
Dew Point 65 °F
Humidity 92%
Rainfall in
Snow Depth Not available.
6:12 AM 7:49 PM
Waning Gibbous, 60% visible
METAR KAUW 240454Z AUTO 13008KT 10SM -RA FEW030 BKN038 20/16 A2995 RMK AO2 RAB52 PRESFR SLP140 P0000 T02000161

10-Day Weather Forecast

Almanac

Astronomy

Aug. 24, 2016 Rise Set
Actual Time
Civil Twilight
Nautical Twilight
Astronomical Twilight
Moon
Length of Visible Light
Length of Day
Tomorrow will be .
, % of the Moon is Illuminated

Today's Extremes

State Highs State Lows

Community

WunderPhotos

Upload Photos

1,934,554 photos uploaded!

WunderBlog® & News

Nearby

Air Quality

  Air Quality AQ Index Pollutant
Not available.

Snow Depth

Station Depth Elevation

Earthquake Activity

City Distance Mag. Time & Date
Minimum magnitude displayed is 2.5.

Coastal Water Temperatures

Place Temperature

Stations

Nearby Weather Stations

Station Location Temp. Windchill Dew Point Humidity Wind Precip. Elev Updated Type
                   

Watches & Warnings

There are currently no watches in effect.